createdAt,value
2023-01-21T00:00:09.663Z,50.26
2023-01-21T00:01:09.694Z,50.26
2023-01-21T00:02:09.670Z,50.15
2023-01-21T00:03:09.644Z,50.15
2023-01-21T00:04:09.612Z,49.95
2023-01-21T00:05:09.650Z,49.95
2023-01-21T00:06:09.613Z,50.15
2023-01-21T00:07:09.577Z,50.05
2023-01-21T00:08:09.578Z,50.07
2023-01-21T00:09:09.549Z,49.76
2023-01-21T00:10:09.544Z,49.74
2023-01-21T00:11:09.549Z,49.34
2023-01-21T00:12:09.520Z,49.65
2023-01-21T00:13:09.525Z,49.44
2023-01-21T00:14:09.495Z,49.01
2023-01-21T00:15:09.473Z,49.21
2023-01-21T00:16:09.543Z,49.32
2023-01-21T00:17:09.443Z,49.52
2023-01-21T00:18:09.444Z,49.34
2023-01-21T00:19:09.427Z,49.55
2023-01-21T00:20:09.403Z,49.32
2023-01-21T00:21:09.443Z,49.52
2023-01-21T00:22:09.376Z,49.44
2023-01-21T00:23:09.374Z,49.24
2023-01-21T00:24:09.353Z,49.34
2023-01-21T00:25:09.345Z,49.02
2023-01-21T00:26:09.380Z,48.92
2023-01-21T00:27:09.313Z,49.44
2023-01-21T00:28:09.315Z,49.24
2023-01-21T00:29:09.326Z,49.34
2023-01-21T00:30:09.265Z,49.34
2023-01-21T00:31:09.416Z,49.34
2023-01-21T00:32:09.250Z,49.34
2023-01-21T00:33:09.248Z,49.24
2023-01-21T00:34:09.222Z,49.76
2023-01-21T00:35:09.218Z,50.18
2023-01-21T00:36:09.222Z,49.97
2023-01-21T00:37:09.181Z,49.76
2023-01-21T00:38:09.163Z,49.87
2023-01-21T00:39:09.158Z,49.87
2023-01-21T00:40:09.145Z,49.97
2023-01-21T00:41:09.225Z,49.97
2023-01-21T00:42:09.114Z,49.97
2023-01-21T00:43:09.093Z,49.34
2023-01-21T00:44:09.083Z,49.76
2023-01-21T00:45:09.076Z,49.55
2023-01-21T00:46:09.089Z,49.55
2023-01-21T00:47:09.055Z,49.44
2023-01-21T00:48:09.031Z,49.26
2023-01-21T00:49:09.043Z,49.55
2023-01-21T00:50:09.015Z,49.15
2023-01-21T00:51:09.048Z,49.26
2023-01-21T00:52:08.979Z,48.94
2023-01-21T00:53:08.963Z,49.05
2023-01-21T00:54:08.953Z,48.94
2023-01-21T00:55:08.947Z,48.63
2023-01-21T00:56:08.942Z,48.63
2023-01-21T00:57:08.920Z,48.52
2023-01-21T00:58:08.903Z,48.73
2023-01-21T00:59:08.903Z,48.52
2023-01-21T01:00:08.874Z,48.10
2023-01-21T01:01:08.959Z,48.32
2023-01-21T01:02:09.015Z,48.32
2023-01-21T01:03:08.840Z,48.84
2023-01-21T01:04:08.821Z,48.42
2023-01-21T01:05:08.812Z,48.32
2023-01-21T01:06:08.826Z,48.63
2023-01-21T01:07:08.810Z,48.52
2023-01-21T01:08:08.775Z,48.32
2023-01-21T01:09:08.763Z,48.63
2023-01-21T01:10:08.741Z,48.63
2023-01-21T01:11:08.779Z,48.52
2023-01-21T01:12:08.721Z,48.32
2023-01-21T01:13:08.716Z,48.32
2023-01-21T01:14:08.690Z,48.42
2023-01-21T01:15:08.698Z,48.52
2023-01-21T01:16:08.701Z,48.63
2023-01-21T01:17:08.663Z,48.73
2023-01-21T01:18:08.645Z,48.84
2023-01-21T01:19:08.632Z,48.32
2023-01-21T01:20:08.612Z,48.42
2023-01-21T01:21:08.621Z,48.32
2023-01-21T01:22:08.592Z,48.73
2023-01-21T01:23:08.573Z,48.73
2023-01-21T01:24:08.559Z,48.63
2023-01-21T01:25:08.554Z,49.36
2023-01-21T01:26:08.564Z,49.15
2023-01-21T01:27:08.541Z,48.94
2023-01-21T01:28:08.522Z,49.15
2023-01-21T01:29:08.501Z,49.05
2023-01-21T01:30:08.472Z,49.36
2023-01-21T01:31:08.630Z,49.26
2023-01-21T01:32:08.460Z,49.36
2023-01-21T01:33:08.450Z,49.15
2023-01-21T01:34:08.431Z,48.73
2023-01-21T01:35:08.421Z,48.84
2023-01-21T01:36:08.431Z,48.52
2023-01-21T01:37:08.411Z,48.73
2023-01-21T01:38:08.380Z,48.73
2023-01-21T01:39:08.376Z,48.63
2023-01-21T01:40:08.352Z,48.42
2023-01-21T01:41:08.352Z,48.52
2023-01-21T01:42:08.331Z,48.52
2023-01-21T01:43:08.311Z,48.42
2023-01-21T01:44:08.301Z,48.21
2023-01-21T01:45:08.291Z,48.42
2023-01-21T01:46:08.333Z,48.32
2023-01-21T01:47:08.262Z,48.32
2023-01-21T01:48:08.243Z,48.63
2023-01-21T01:49:08.239Z,48.42
2023-01-21T01:50:08.221Z,48.42
2023-01-21T01:51:08.233Z,48.21
2023-01-21T01:52:08.191Z,47.81
2023-01-21T01:53:08.211Z,47.58
2023-01-21T01:54:08.171Z,47.79
2023-01-21T01:55:08.163Z,47.89
2023-01-21T01:56:08.176Z,47.79
2023-01-21T01:57:08.142Z,47.79
2023-01-21T01:58:08.123Z,47.79
2023-01-21T01:59:08.111Z,47.69
2023-01-21T02:00:08.093Z,47.69
2023-01-21T02:01:08.090Z,48.00
2023-01-21T02:02:08.081Z,47.79
2023-01-21T02:03:08.071Z,48.21
2023-01-21T02:04:08.040Z,48.00
2023-01-21T02:05:08.053Z,48.21
2023-01-21T02:06:08.009Z,48.21
2023-01-21T02:07:08.025Z,48.52
2023-01-21T02:08:07.991Z,48.52
2023-01-21T02:09:07.977Z,48.32
2023-01-21T02:10:07.965Z,48.52
2023-01-21T02:11:07.955Z,48.73
2023-01-21T02:12:07.965Z,48.65
2023-01-21T02:13:07.943Z,48.65
2023-01-21T02:14:07.911Z,48.65
2023-01-21T02:15:07.903Z,48.75
2023-01-21T02:16:07.914Z,48.65
2023-01-21T02:17:07.899Z,48.65
2023-01-21T02:18:07.864Z,48.75
2023-01-21T02:19:07.846Z,49.07
2023-01-21T02:20:07.840Z,48.96
2023-01-21T02:21:07.827Z,49.28
2023-01-21T02:22:07.830Z,49.28
2023-01-21T02:23:07.791Z,49.28
2023-01-21T02:24:07.790Z,49.18
2023-01-21T02:25:07.776Z,49.38
2023-01-21T02:26:07.753Z,49.18
2023-01-21T02:27:07.759Z,48.86
2023-01-21T02:28:07.731Z,48.86
2023-01-21T02:29:07.724Z,48.86
2023-01-21T02:30:07.710Z,48.75
2023-01-21T02:31:07.821Z,48.55
2023-01-21T02:32:07.697Z,48.33
2023-01-21T02:33:07.660Z,48.13
2023-01-21T02:34:07.665Z,48.33
2023-01-21T02:35:20.551Z,48.13
2023-01-21T02:36:07.649Z,47.92
2023-01-21T02:37:09.514Z,47.92
2023-01-21T02:38:07.600Z,48.02
2023-01-21T02:39:07.600Z,48.33
2023-01-21T02:40:07.582Z,48.13
2023-01-21T02:41:07.582Z,48.13
2023-01-21T02:42:07.578Z,48.23
2023-01-21T02:43:07.561Z,48.65
2023-01-21T02:44:07.522Z,48.44
2023-01-21T02:45:07.558Z,48.33
2023-01-21T02:46:07.523Z,48.65
2023-01-21T02:47:07.512Z,48.96
2023-01-21T02:48:07.484Z,48.86
2023-01-21T02:49:07.465Z,48.86
2023-01-21T02:50:07.494Z,48.65
2023-01-21T02:51:07.471Z,49.18
2023-01-21T02:52:07.453Z,49.07
2023-01-21T02:53:07.405Z,49.07
2023-01-21T02:54:07.443Z,49.18
2023-01-21T02:55:07.380Z,49.07
2023-01-21T02:56:07.371Z,48.96
2023-01-21T02:57:07.369Z,48.96
2023-01-21T02:58:07.356Z,49.28
2023-01-21T02:59:07.331Z,49.28
2023-01-21T03:00:07.337Z,49.38
2023-01-21T03:01:07.392Z,49.59
2023-01-21T03:02:07.404Z,49.70
2023-01-21T03:03:07.284Z,49.59
2023-01-21T03:04:07.280Z,49.59
2023-01-21T03:05:07.248Z,50.01
2023-01-21T03:06:07.249Z,50.01
2023-01-21T03:07:07.248Z,49.80
2023-01-21T03:08:07.232Z,50.12
2023-01-21T03:09:07.201Z,50.12
2023-01-21T03:10:07.189Z,49.91
2023-01-21T03:11:07.203Z,49.83
2023-01-21T03:12:07.193Z,49.80
2023-01-21T03:13:07.185Z,50.43
2023-01-21T03:14:07.137Z,50.35
2023-01-21T03:15:07.161Z,50.56
2023-01-21T03:16:07.138Z,50.24
2023-01-21T03:17:07.180Z,50.46
2023-01-21T03:18:07.109Z,50.56
2023-01-21T03:19:07.097Z,50.24
2023-01-21T03:20:07.072Z,49.83
2023-01-21T03:21:07.200Z,49.72
2023-01-21T03:22:07.036Z,49.51
2023-01-21T03:23:07.044Z,49.41
2023-01-21T03:24:06.999Z,49.41
2023-01-21T03:25:07.046Z,49.19
2023-01-21T03:26:06.980Z,49.09
2023-01-21T03:27:06.981Z,49.19
2023-01-21T03:28:06.980Z,48.88
2023-01-21T03:29:06.958Z,48.57
2023-01-21T03:30:06.994Z,48.36
2023-01-21T03:31:07.035Z,48.04
2023-01-21T03:32:06.927Z,48.04
2023-01-21T03:33:06.919Z,47.94
2023-01-21T03:34:06.877Z,48.25
2023-01-21T03:35:06.874Z,47.94
2023-01-21T03:36:06.896Z,48.04
2023-01-21T03:37:06.838Z,47.73
2023-01-21T03:38:06.837Z,47.73
2023-01-21T03:39:06.806Z,48.04
2023-01-21T03:40:06.811Z,47.83
2023-01-21T03:41:06.779Z,48.15
2023-01-21T03:42:06.777Z,48.46
2023-01-21T03:43:06.806Z,48.36
2023-01-21T03:44:06.752Z,48.25
2023-01-21T03:45:06.741Z,48.15
2023-01-21T03:46:06.738Z,48.15
2023-01-21T03:47:06.736Z,47.94
2023-01-21T03:48:06.743Z,47.83
2023-01-21T03:49:06.677Z,47.83
2023-01-21T03:50:06.692Z,47.94
2023-01-21T03:51:06.742Z,47.73
2023-01-21T03:52:06.646Z,47.83
2023-01-21T03:53:06.684Z,48.04
2023-01-21T03:54:06.635Z,48.15
2023-01-21T03:55:06.601Z,48.04
2023-01-21T03:56:06.588Z,48.36
2023-01-21T03:57:06.590Z,47.94
2023-01-21T03:58:06.580Z,48.57
2023-01-21T03:59:06.548Z,48.04
2023-01-21T04:00:06.549Z,48.36
2023-01-21T04:01:06.550Z,48.68
2023-01-21T04:02:06.572Z,48.57
2023-01-21T04:03:06.516Z,48.36
2023-01-21T04:04:06.494Z,48.46
2023-01-21T04:05:06.500Z,48.57
2023-01-21T04:06:06.474Z,48.69
2023-01-21T04:07:06.449Z,48.88
2023-01-21T04:08:06.506Z,48.68
2023-01-21T04:09:06.446Z,48.69
2023-01-21T04:10:06.451Z,48.99
2023-01-21T04:11:06.408Z,48.46
2023-01-21T04:12:06.390Z,48.46
2023-01-21T04:13:06.414Z,48.78
2023-01-21T04:14:06.377Z,48.69
2023-01-21T04:15:06.357Z,48.57
2023-01-21T04:16:06.430Z,48.36
2023-01-21T04:17:06.329Z,48.69
2023-01-21T04:18:06.343Z,48.80
2023-01-21T04:19:06.301Z,48.36
2023-01-21T04:20:06.287Z,48.15
2023-01-21T04:21:06.257Z,48.36
2023-01-21T04:22:06.262Z,48.25
2023-01-21T04:23:06.265Z,48.46
2023-01-21T04:24:06.227Z,48.46
2023-01-21T04:25:06.217Z,48.57
2023-01-21T04:26:06.231Z,48.25
2023-01-21T04:27:06.195Z,48.25
2023-01-21T04:28:06.206Z,48.25
2023-01-21T04:29:06.168Z,48.04
2023-01-21T04:30:06.167Z,48.04
2023-01-21T04:31:06.216Z,48.46
2023-01-21T04:32:06.149Z,48.68
2023-01-21T04:33:06.134Z,48.36
2023-01-21T04:34:06.166Z,48.36
2023-01-21T04:35:06.095Z,48.25
2023-01-21T04:36:06.099Z,48.25
2023-01-21T04:37:06.074Z,48.57
2023-01-21T04:38:06.077Z,48.78
2023-01-21T04:39:06.042Z,48.78
2023-01-21T04:40:06.080Z,48.88
2023-01-21T04:41:06.009Z,49.19
2023-01-21T04:42:06.018Z,49.11
2023-01-21T04:43:06.009Z,49.51
2023-01-21T04:44:06.002Z,49.54
2023-01-21T04:45:05.967Z,49.22
2023-01-21T04:46:06.006Z,49.43
2023-01-21T04:47:05.938Z,49.43
2023-01-21T04:48:05.934Z,49.72
2023-01-21T04:49:05.936Z,49.51
2023-01-21T04:50:05.905Z,49.43
2023-01-21T04:51:05.975Z,49.64
2023-01-21T04:52:05.898Z,49.32
2023-01-21T04:53:05.920Z,49.74
2023-01-21T04:54:05.999Z,49.64
2023-01-21T04:55:05.834Z,49.74
2023-01-21T04:56:05.841Z,49.85
2023-01-21T04:57:05.810Z,49.95
2023-01-21T04:58:05.811Z,49.74
2023-01-21T04:59:05.827Z,49.85
2023-01-21T05:00:05.785Z,49.95
2023-01-21T05:01:05.807Z,50.27
2023-01-21T05:02:05.792Z,50.37
2023-01-21T05:03:05.728Z,49.95
2023-01-21T05:04:05.756Z,50.27
2023-01-21T05:05:05.732Z,50.37
2023-01-21T05:06:05.702Z,50.06
2023-01-21T05:07:05.681Z,49.95
2023-01-21T05:08:05.680Z,50.06
2023-01-21T05:09:05.707Z,49.95
2023-01-21T05:10:05.663Z,50.27
2023-01-21T05:11:05.626Z,50.16
2023-01-21T05:12:05.627Z,50.06
2023-01-21T05:13:05.625Z,50.59
2023-01-21T05:14:05.626Z,50.59
2023-01-21T05:15:05.591Z,50.69
2023-01-21T05:16:05.631Z,50.48
2023-01-21T05:17:05.566Z,50.59
2023-01-21T05:18:05.548Z,50.90
2023-01-21T05:19:05.561Z,50.59
2023-01-21T05:20:05.567Z,50.90
2023-01-21T05:21:05.517Z,50.90
2023-01-21T05:22:05.495Z,50.90
2023-01-21T05:23:05.480Z,51.00
2023-01-21T05:24:05.476Z,50.90
2023-01-21T05:25:05.458Z,50.79
2023-01-21T05:26:05.482Z,51.21
2023-01-21T05:27:05.435Z,51.32
2023-01-21T05:28:05.432Z,51.32
2023-01-21T05:29:05.428Z,51.21
2023-01-21T05:30:05.401Z,51.11
2023-01-21T05:31:05.467Z,50.90
2023-01-21T05:32:05.396Z,51.21
2023-01-21T05:33:05.355Z,51.32
2023-01-21T05:34:05.375Z,51.11
2023-01-21T05:35:05.327Z,51.21
2023-01-21T05:36:05.344Z,51.53
2023-01-21T05:37:05.308Z,51.74
2023-01-21T05:38:05.291Z,51.65
2023-01-21T05:39:05.318Z,51.97
2023-01-21T05:40:05.283Z,51.87
2023-01-21T05:41:05.257Z,51.65
2023-01-21T05:42:05.246Z,51.55
2023-01-21T05:43:05.241Z,51.24
2023-01-21T05:44:05.248Z,51.24
2023-01-21T05:45:05.196Z,51.34
2023-01-21T05:46:05.271Z,51.24
2023-01-21T05:47:05.179Z,51.03
2023-01-21T05:48:05.162Z,50.60
2023-01-21T05:49:05.181Z,50.71
2023-01-21T05:50:05.144Z,50.50
2023-01-21T05:51:05.185Z,50.60
2023-01-21T05:52:05.118Z,50.71
2023-01-21T05:53:05.105Z,50.60
2023-01-21T05:54:05.132Z,50.40
2023-01-21T05:55:05.075Z,50.29
2023-01-21T05:56:05.064Z,50.19
2023-01-21T05:57:05.054Z,50.40
2023-01-21T05:58:05.044Z,50.50
2023-01-21T05:59:05.053Z,50.29
2023-01-21T06:00:05.015Z,50.19
2023-01-21T06:01:04.996Z,50.29
2023-01-21T06:02:04.999Z,50.19
2023-01-21T06:03:04.994Z,50.40
2023-01-21T06:04:05.006Z,50.92
2023-01-21T06:05:04.944Z,50.71
2023-01-21T06:06:04.944Z,50.60
2023-01-21T06:07:04.923Z,50.71
2023-01-21T06:08:04.936Z,50.29
2023-01-21T06:09:05.032Z,50.60
2023-01-21T06:10:04.967Z,51.34
2023-01-21T06:11:04.954Z,51.45
2023-01-21T06:12:04.935Z,51.13
2023-01-21T06:13:04.846Z,50.82
2023-01-21T06:14:04.916Z,50.60
2023-01-21T06:15:04.833Z,50.50
2023-01-21T06:16:04.891Z,50.82
2023-01-21T06:17:04.828Z,50.60
2023-01-21T06:18:04.793Z,50.19
2023-01-21T06:19:04.794Z,50.40
2023-01-21T06:20:04.769Z,50.29
2023-01-21T06:21:04.756Z,50.19
2023-01-21T06:22:04.756Z,50.16
2023-01-21T06:23:04.733Z,50.40
2023-01-21T06:24:04.756Z,51.03
2023-01-21T06:25:04.743Z,50.60
2023-01-21T06:26:04.713Z,50.71
2023-01-21T06:27:04.678Z,50.92
2023-01-21T06:28:04.675Z,50.82
2023-01-21T06:29:04.689Z,50.29
2023-01-21T06:30:04.645Z,50.50
2023-01-21T06:31:04.738Z,50.50
2023-01-21T06:32:04.717Z,50.50
2023-01-21T06:33:04.616Z,50.71
2023-01-21T06:34:04.595Z,50.82
2023-01-21T06:35:04.605Z,50.19
2023-01-21T06:36:04.565Z,50.50
2023-01-21T06:37:04.572Z,50.19
2023-01-21T06:38:04.531Z,50.08
2023-01-21T06:39:04.552Z,49.77
2023-01-21T06:40:04.535Z,50.08
2023-01-21T06:41:04.509Z,50.29
2023-01-21T06:42:04.527Z,50.19
2023-01-21T06:43:04.475Z,50.19
2023-01-21T06:44:04.523Z,50.08
2023-01-21T06:45:04.468Z,49.66
2023-01-21T06:46:04.505Z,49.45
2023-01-21T06:47:04.499Z,49.45
2023-01-21T06:48:04.426Z,49.43
2023-01-21T06:49:04.415Z,49.32
2023-01-21T06:50:04.391Z,49.87
2023-01-21T06:51:04.416Z,49.22
2023-01-21T06:52:04.369Z,49.98
2023-01-21T06:53:04.355Z,49.66
2023-01-21T06:54:04.351Z,49.45
2023-01-21T06:55:04.332Z,50.40
2023-01-21T06:56:04.314Z,50.08
2023-01-21T06:57:04.333Z,49.77
2023-01-21T06:58:04.289Z,49.98
2023-01-21T06:59:04.305Z,50.29
2023-01-21T07:00:04.264Z,50.40
2023-01-21T07:01:04.245Z,50.71
2023-01-21T07:02:04.244Z,50.29
2023-01-21T07:03:04.273Z,51.45
2023-01-21T07:04:04.267Z,51.03
2023-01-21T07:05:04.262Z,51.03
2023-01-21T07:06:04.184Z,50.92
2023-01-21T07:07:04.172Z,51.24
2023-01-21T07:08:04.152Z,50.92
2023-01-21T07:09:04.186Z,50.92
2023-01-21T07:10:04.128Z,51.24
2023-01-21T07:11:04.139Z,51.13
2023-01-21T07:12:04.101Z,51.34
2023-01-21T07:13:04.111Z,50.92
2023-01-21T07:14:04.105Z,51.45
2023-01-21T07:15:04.073Z,51.05
2023-01-21T07:16:06.806Z,50.73
2023-01-21T07:17:04.052Z,50.63
2023-01-21T07:18:04.072Z,50.95
2023-01-21T07:19:04.052Z,50.82
2023-01-21T07:20:04.031Z,50.42
2023-01-21T07:21:04.022Z,50.71
2023-01-21T07:22:03.979Z,50.00
2023-01-21T07:23:03.984Z,50.52
2023-01-21T07:24:03.954Z,50.71
2023-01-21T07:25:03.961Z,50.42
2023-01-21T07:26:03.927Z,50.10
2023-01-21T07:27:03.925Z,50.42
2023-01-21T07:28:03.923Z,49.90
2023-01-21T07:29:03.916Z,49.90
2023-01-21T07:30:03.960Z,50.32
2023-01-21T07:31:03.957Z,49.90
2023-01-21T07:32:03.922Z,49.79
2023-01-21T07:33:03.863Z,49.90
2023-01-21T07:34:03.840Z,49.68
2023-01-21T07:35:03.839Z,49.58
2023-01-21T07:36:03.804Z,49.98
2023-01-21T07:37:03.800Z,49.68
2023-01-21T07:38:03.772Z,49.79
2023-01-21T07:39:03.784Z,50.10
2023-01-21T07:40:03.770Z,50.10
2023-01-21T07:41:03.761Z,50.00
2023-01-21T07:42:03.738Z,49.68
2023-01-21T07:43:03.746Z,49.90
2023-01-21T07:44:03.713Z,49.58
2023-01-21T07:45:03.722Z,49.58
2023-01-21T07:46:03.687Z,49.90
2023-01-21T07:47:03.677Z,49.58
2023-01-21T07:48:03.680Z,49.48
2023-01-21T07:49:03.655Z,49.37
2023-01-21T07:50:03.639Z,49.37
2023-01-21T07:51:03.680Z,49.58
2023-01-21T07:52:03.613Z,49.48
2023-01-21T07:53:03.599Z,49.16
2023-01-21T07:54:03.585Z,49.16
2023-01-21T07:55:03.591Z,49.48
2023-01-21T07:56:03.569Z,49.05
2023-01-21T07:57:03.575Z,49.16
2023-01-21T07:58:03.539Z,49.05
2023-01-21T07:59:03.510Z,49.05
2023-01-21T08:00:03.541Z,48.95
2023-01-21T08:01:03.505Z,48.63
2023-01-21T08:02:03.673Z,48.95
2023-01-21T08:03:03.471Z,48.61
2023-01-21T08:04:03.447Z,48.82
2023-01-21T08:05:03.475Z,48.50
2023-01-21T08:06:03.432Z,49.14
2023-01-21T08:07:03.410Z,48.61
2023-01-21T08:08:03.401Z,48.50
2023-01-21T08:09:03.391Z,48.50
2023-01-21T08:10:03.399Z,48.50
2023-01-21T08:11:03.368Z,48.40
2023-01-21T08:12:03.347Z,48.50
2023-01-21T08:13:03.341Z,48.40
2023-01-21T08:14:03.320Z,48.82
2023-01-21T08:15:03.369Z,48.72
2023-01-21T08:16:03.343Z,48.30
2023-01-21T08:17:03.300Z,48.40
2023-01-21T08:18:03.302Z,48.72
2023-01-21T08:19:03.273Z,48.69
2023-01-21T08:20:03.280Z,48.69
2023-01-21T08:21:03.280Z,49.01
2023-01-21T08:22:03.244Z,49.11
2023-01-21T08:23:03.215Z,49.32
2023-01-21T08:24:03.215Z,49.22
2023-01-21T08:25:03.219Z,49.32
2023-01-21T08:26:03.220Z,49.85
2023-01-21T08:27:03.165Z,49.95
2023-01-21T08:28:03.146Z,50.06
2023-01-21T08:29:03.149Z,50.16
2023-01-21T08:30:03.137Z,50.27
2023-01-21T08:31:03.205Z,50.16
2023-01-21T08:32:03.118Z,50.69
2023-01-21T08:33:04.903Z,50.79
2023-01-21T08:34:03.081Z,50.59
2023-01-21T08:35:03.077Z,50.79
2023-01-21T08:37:15.580Z,51.42
2023-01-21T08:38:12.860Z,51.11
2023-01-21T08:39:12.852Z,51.11
2023-01-21T08:40:12.824Z,51.21
2023-01-21T08:41:12.821Z,51.29
2023-01-21T08:42:12.802Z,51.19
2023-01-21T08:43:12.785Z,51.51
2023-01-21T08:44:12.780Z,51.61
2023-01-21T08:45:15.164Z,52.03
2023-01-21T08:46:12.793Z,51.61
2023-01-21T08:47:12.734Z,51.82
2023-01-21T08:48:12.738Z,51.92
2023-01-21T08:49:12.722Z,52.24
2023-01-21T08:50:12.702Z,52.01
2023-01-21T08:51:12.804Z,52.42
2023-01-21T08:52:12.681Z,52.42
2023-01-21T08:53:12.650Z,52.64
2023-01-21T08:54:12.651Z,52.74
2023-01-21T08:55:12.661Z,53.27
2023-01-21T08:56:12.639Z,53.77
2023-01-21T08:57:12.600Z,54.42
2023-01-21T08:58:12.611Z,54.71
2023-01-21T08:59:12.591Z,55.02
2023-01-21T09:00:12.565Z,55.44
2023-01-21T09:01:12.657Z,55.44
2023-01-21T09:02:12.657Z,55.55
2023-01-21T09:03:12.531Z,56.38
2023-01-21T09:04:12.521Z,56.18
2023-01-21T09:05:12.523Z,56.91
2023-01-21T09:06:12.510Z,56.91
2023-01-21T09:07:12.468Z,56.59
2023-01-21T09:08:12.467Z,55.96
2023-01-21T09:09:12.448Z,55.83
2023-01-21T09:10:12.454Z,56.15
2023-01-21T09:11:12.430Z,55.94
2023-01-21T09:12:12.401Z,56.26
2023-01-21T09:13:12.382Z,57.20
2023-01-21T09:14:12.395Z,57.82
2023-01-21T09:15:12.369Z,57.20
2023-01-21T09:16:12.428Z,57.62
2023-01-21T09:17:12.340Z,58.35
2023-01-21T09:18:12.318Z,57.82
2023-01-21T09:19:12.314Z,57.82
2023-01-21T09:20:12.299Z,58.14
2023-01-21T09:21:12.320Z,58.14
2023-01-21T09:22:12.275Z,58.14
2023-01-21T09:23:12.283Z,57.72
2023-01-21T09:24:12.248Z,57.09
2023-01-21T09:25:12.260Z,57.40
2023-01-21T09:26:12.246Z,57.72
2023-01-21T09:27:12.212Z,57.82
2023-01-21T09:28:12.195Z,57.93
2023-01-21T09:29:12.185Z,58.25
2023-01-21T09:30:12.170Z,58.25
2023-01-21T09:31:12.201Z,57.82
2023-01-21T09:32:12.151Z,57.28
2023-01-21T09:33:12.133Z,57.38
2023-01-21T09:34:12.122Z,57.48
2023-01-21T09:35:12.114Z,57.48
2023-01-21T09:36:12.122Z,58.01
2023-01-21T09:37:12.067Z,58.11
2023-01-21T09:38:12.068Z,58.11
2023-01-21T09:39:12.058Z,58.40
2023-01-21T09:40:12.057Z,58.40
2023-01-21T09:41:12.051Z,58.82
2023-01-21T09:42:12.029Z,58.61
2023-01-21T09:43:12.021Z,59.13
2023-01-21T09:44:11.993Z,59.21
2023-01-21T09:45:11.976Z,60.05
2023-01-21T09:46:12.065Z,60.57
2023-01-21T09:47:11.992Z,60.78
2023-01-21T09:48:11.930Z,61.41
2023-01-21T09:49:11.937Z,62.14
2023-01-21T09:50:11.941Z,62.07
2023-01-21T09:51:11.915Z,62.38
2023-01-21T09:52:11.883Z,61.83
2023-01-21T09:53:11.864Z,62.35
2023-01-21T09:54:11.848Z,62.45
2023-01-21T09:55:11.861Z,62.14
2023-01-21T09:56:11.849Z,63.18
2023-01-21T09:57:11.837Z,62.87
2023-01-21T09:58:11.818Z,62.77
2023-01-21T09:59:11.812Z,62.87
2023-01-21T10:00:11.785Z,63.08
2023-01-21T10:01:11.800Z,63.60
2023-01-21T10:02:11.749Z,63.50
2023-01-21T10:03:11.732Z,63.29
2023-01-21T10:04:11.767Z,63.81
2023-01-21T10:05:11.730Z,63.40
2023-01-21T10:06:11.720Z,63.40
2023-01-21T10:07:11.681Z,63.81
2023-01-21T10:08:11.675Z,63.50
2023-01-21T10:09:11.648Z,63.68
2023-01-21T10:10:11.697Z,64.10
2023-01-21T10:11:11.647Z,64.10
2023-01-21T10:12:11.646Z,64.41
2023-01-21T10:13:11.610Z,64.51
2023-01-21T10:14:11.609Z,64.51
2023-01-21T10:15:11.571Z,64.59
2023-01-21T10:16:11.591Z,64.94
2023-01-21T10:17:11.564Z,65.25
2023-01-21T10:18:11.545Z,65.95
2023-01-21T10:19:11.519Z,65.95
2023-01-21T10:20:11.506Z,66.40
2023-01-21T10:21:11.506Z,66.71
2023-01-21T10:22:11.516Z,66.71
2023-01-21T10:23:11.479Z,67.03
2023-01-21T10:24:11.457Z,66.61
2023-01-21T10:25:11.456Z,66.16
2023-01-21T10:26:11.439Z,65.84
2023-01-21T10:27:11.427Z,66.37
2023-01-21T10:28:11.418Z,66.47
2023-01-21T10:29:11.394Z,67.00
2023-01-21T10:30:11.379Z,66.58
2023-01-21T10:31:11.404Z,66.47
2023-01-21T10:32:11.388Z,66.47
2023-01-21T10:33:11.337Z,66.27
2023-01-21T10:34:11.340Z,66.47
2023-01-21T10:35:11.308Z,66.78
2023-01-21T10:36:11.302Z,67.07
2023-01-21T10:37:11.317Z,67.52
2023-01-21T10:38:11.270Z,68.15
2023-01-21T10:39:11.275Z,67.91
2023-01-21T10:40:11.269Z,68.32
2023-01-21T10:41:11.234Z,68.95
2023-01-21T10:42:11.241Z,68.63
2023-01-21T10:43:11.216Z,68.43
2023-01-21T10:44:11.191Z,68.74
2023-01-21T10:45:11.168Z,69.16
2023-01-21T10:46:11.252Z,69.06
2023-01-21T10:47:11.164Z,69.47
2023-01-21T10:48:11.157Z,70.10
2023-01-21T10:49:11.136Z,69.89
2023-01-21T10:50:11.128Z,70.10
2023-01-21T10:51:11.225Z,70.83
2023-01-21T10:52:11.118Z,70.94
2023-01-21T10:53:11.076Z,71.04
2023-01-21T10:54:11.065Z,71.25
2023-01-21T10:55:11.061Z,70.73
2023-01-21T10:56:11.077Z,69.79
2023-01-21T10:57:11.039Z,69.86
2023-01-21T10:58:11.028Z,70.07
2023-01-21T10:59:10.994Z,70.17
2023-01-21T11:00:11.006Z,70.28
2023-01-21T11:01:10.996Z,70.48
2023-01-21T11:02:10.997Z,71.42
2023-01-21T11:03:10.937Z,71.95
2023-01-21T11:04:10.928Z,71.22
2023-01-21T11:05:10.909Z,71.42
2023-01-21T11:06:10.930Z,71.84
2023-01-21T11:07:10.899Z,72.05
2023-01-21T11:08:10.888Z,72.78
2023-01-21T11:09:10.942Z,72.58
2023-01-21T11:10:10.850Z,71.74
2023-01-21T11:11:10.833Z,71.11
2023-01-21T11:12:10.849Z,70.59
2023-01-21T11:13:10.821Z,71.42
2023-01-21T11:14:10.822Z,71.74
2023-01-21T11:15:10.785Z,71.01
2023-01-21T11:16:10.811Z,70.90
2023-01-21T11:17:10.791Z,70.98
2023-01-21T11:18:10.745Z,71.70
2023-01-21T11:19:10.727Z,71.11
2023-01-21T11:20:10.720Z,70.66
2023-01-21T11:21:10.696Z,70.98
2023-01-21T11:22:10.725Z,72.02
2023-01-21T11:23:10.685Z,70.87
2023-01-21T11:24:10.666Z,70.56
2023-01-21T11:25:10.638Z,70.76
2023-01-21T11:26:10.638Z,70.98
2023-01-21T11:27:10.628Z,70.98
2023-01-21T11:28:10.607Z,72.13
2023-01-21T11:29:10.594Z,73.48
2023-01-21T11:30:29.676Z,72.64
2023-01-21T11:31:11.644Z,71.91
2023-01-21T11:32:10.710Z,71.81
2023-01-21T11:33:10.554Z,71.88
2023-01-21T11:34:10.527Z,71.78
2023-01-21T11:35:10.831Z,72.09
2023-01-21T11:36:10.518Z,72.30
2023-01-21T11:37:10.506Z,72.72
2023-01-21T11:38:10.479Z,72.51
2023-01-21T11:39:10.467Z,73.66
2023-01-21T11:40:10.467Z,73.13
2023-01-21T11:41:11.158Z,73.03
2023-01-21T11:42:10.464Z,73.76
2023-01-21T11:43:10.405Z,73.66
2023-01-21T11:44:10.408Z,73.62
2023-01-21T11:45:10.399Z,75.29
2023-01-21T11:46:10.410Z,75.50
2023-01-21T11:47:10.388Z,74.87
2023-01-21T11:48:10.366Z,75.29
2023-01-21T11:49:10.356Z,77.06
2023-01-21T11:50:10.329Z,77.27
2023-01-21T11:51:10.351Z,77.37
2023-01-21T11:52:10.295Z,78.21
2023-01-21T11:53:10.315Z,78.00
2023-01-21T11:54:10.269Z,77.58
2023-01-21T11:55:10.268Z,77.55
2023-01-21T11:56:10.246Z,76.82
2023-01-21T11:57:10.240Z,76.82
2023-01-21T11:58:10.228Z,77.23
2023-01-21T11:59:10.218Z,77.86
2023-01-21T12:00:10.197Z,77.31
2023-01-21T12:01:10.175Z,77.83
2023-01-21T12:02:10.178Z,78.45
2023-01-21T12:03:10.190Z,79.80
2023-01-21T12:04:10.248Z,79.77
2023-01-21T12:05:10.130Z,79.91
2023-01-21T12:06:10.109Z,79.87
2023-01-21T12:07:10.091Z,80.19
2023-01-21T12:08:10.100Z,80.08
2023-01-21T12:09:10.068Z,80.50
2023-01-21T12:10:10.064Z,80.81
2023-01-21T12:11:10.041Z,80.95
2023-01-21T12:12:10.029Z,80.71
2023-01-21T12:13:10.035Z,80.91
2023-01-21T12:14:10.006Z,81.65
2023-01-21T12:15:10.014Z,82.37
2023-01-21T12:16:10.046Z,81.54
2023-01-21T12:17:09.955Z,81.33
2023-01-21T12:18:09.957Z,81.43
2023-01-21T12:19:09.947Z,83.10
2023-01-21T12:20:09.918Z,83.73
2023-01-21T12:21:09.918Z,82.58
2023-01-21T12:22:09.900Z,81.96
2023-01-21T12:23:09.912Z,83.10
2023-01-21T12:24:09.870Z,83.62
2023-01-21T12:25:09.857Z,83.94
2023-01-21T12:26:09.841Z,83.52
2023-01-21T12:27:09.865Z,83.52
2023-01-21T12:28:09.828Z,83.83
2023-01-21T12:29:09.891Z,83.37
2023-01-21T12:30:09.814Z,83.10
2023-01-21T12:31:09.865Z,83.06
2023-01-21T12:32:09.758Z,83.27
2023-01-21T12:33:09.771Z,82.86
2023-01-21T12:34:09.737Z,82.86
2023-01-21T12:35:09.749Z,82.03
2023-01-21T12:36:09.711Z,81.81
2023-01-21T12:37:09.712Z,82.86
2023-01-21T12:38:09.696Z,84.21
2023-01-21T12:39:09.669Z,84.31
2023-01-21T12:40:09.669Z,85.19
2023-01-21T12:41:09.669Z,84.98
2023-01-21T12:42:09.654Z,83.62
2023-01-21T12:43:09.660Z,83.62
2023-01-21T12:44:09.603Z,82.48
2023-01-21T12:45:09.608Z,82.37
2023-01-21T12:46:09.593Z,82.68
2023-01-21T12:47:09.566Z,83.31
2023-01-21T12:48:09.591Z,83.42
2023-01-21T12:49:09.567Z,84.04
2023-01-21T12:50:09.587Z,84.04
2023-01-21T12:51:09.555Z,83.52
2023-01-21T12:52:09.504Z,83.31
2023-01-21T12:53:09.513Z,82.89